LGKOLEIB

Guest
Details From LGKO - Kos
To LEIB - Ibiza
Flight Number -
Tags Generated
Created
Modified
Stats Distance 1,223 nm / 2,265 km
Max Altitude 0 ft / 0 m
Waypoints 6
Social Downloads 1
Likes 0
Share VATSIM

Download

Looking for another format? Having issues loading an existing format? Contact us
Advertisement - Login to hide

Notes

Generated

Route

LGKO ARA30 RAPIS REQIN IBA LEIB

ID Type Via Altitude Latitude Longitude Leg Dist Tot Dist Heading (true) Name
O LGKO APT - 0 ft / 0 m 36.80364˚ 27.08364˚ - 0 nm - -
ARA30 FIX - 0 ft / 0 m 37.91585˚ 21.68731˚ 266 nm 266 nm 286° / 283° -
RAPIS FIX - 0 ft / 0 m 38.40333˚ 16.59500˚ 242 nm 508 nm 279° / 275° -
REQIN FIX - 0 ft / 0 m 39.00000˚ 6.25000˚ 485 nm 994 nm 277° / 271° -
IBA VOR - 0 ft / 0 m 38.86834˚ 1.36591˚ 228 nm 1222 nm 270° / 266° IBIZA VOR-DME
O LEIB APT - 0 ft / 0 m 38.86694˚ 1.35887˚ 0 nm 1222 nm 256° / 256° -

Altitude Profile

Advertisement - Login to hide

Weather


0- 5 10 15 20 25 30 35+ Temperature / ° C

Clouds and Precipitation
Forecast for 2018-05-21 06:00 UTC. Updated 2 hours ago

Ground ~20,000 ft ~40,000 ft Winds

LGKO

Details ICAO LGKO (KGS)
Name KOS
Region Greece
Timezone Europe/Athens (UTC+3.0)
Stats Elevation 412 ft / 126 m (AMSL)
Location 36.794403° 27.090764°
Runways 1
Magnetic Variation 4.764° E

METAR

LGKO 210720Z 16004KT 100V220 9999 FEW035 27/16 Q1012

Decode

TAF

TAF LGKO 210500Z 2106/2206 01010KT 9999 SCT025 BECMG 2107/2109 14014KT

Decode

Departure Runways

ID Width Length Bearing (true) Bearing (mag) Surface Threshold Offset Overrun Length
14 148 ft / 45 m 7,923 ft / 2,415 m 148.29° 143.53° Asphalt 0 ft / 0 m 240 ft / 73 m
32 148 ft / 45 m 7,923 ft / 2,415 m 328.30° 323.54° Asphalt 0 ft / 0 m 205 ft / 62 m

LEIB

Details ICAO LEIB (IBZ)
Name Ibiza
Region Spain
Timezone Europe/Madrid (UTC+2.0)
Stats Elevation 20 ft / 6 m (AMSL)
Location 38.872871° 1.373045°
Runways 1
Magnetic Variation 0.709° E

METAR

LEIB 210730Z 30003KT 240V010 9999 FEW014 SCT020 19/15 Q1012 NOSIG

Decode

TAF

TAF LEIB 210200Z 2103/2203 20005KT 9999 FEW020 SCT040 TX21/2112Z TN14/2106Z BECMG 2110/2112 23012KT BECMG 2118/2120 VRB03KT

Decode

Destination Runways

ID Width Length Bearing (true) Bearing (mag) Surface Threshold Offset Overrun Length
06 148 ft / 45 m 9,153 ft / 2,790 m 61.85° 61.14° Asphalt 0 ft / 0 m 213 ft / 65 m
24 148 ft / 45 m 9,153 ft / 2,790 m 241.86° 241.15° Asphalt 0 ft / 0 m 197 ft / 60 m

Approach Navaids

Runway Type Ident Frequency Range Bearing (true) Bearing (mag) Slope Elevation
06 Localiser IBI 111.10 MHz 18 nm / 33 km 62.00° 61.29° - 20 ft / 6 m (AMSL)
06 Glidescope IBI 111.10 MHz 10 nm / 19 km 62.00° 61.29° 3.00° 20 ft / 6 m (AMSL)
06 DME IBI 111.10 MHz 18 nm / 33 km - - - 20 ft / 6 m (AMSL)
24 Localiser IBZ 109.50 MHz 18 nm / 33 km 241.81° 241.10° - 15 ft / 5 m (AMSL)
24 Glidescope IBZ 109.50 MHz 10 nm / 19 km 241.86° 241.15° 3.00° 69 ft / 21 m (AMSL)
24 DME IBZ 109.50 MHz 18 nm / 33 km - - - 69 ft / 21 m (AMSL)